Time;durP1;ratioP1;P1;durP2;ratioP2;P2;SDS_P1;SDS_P2;PMS_P1;PMS_P2;Temp;Humidity;BMP_temperature;BMP_pressure;BME280_temperature;BME280_humidity;BME280_pressure;Samples;Min_cycle;Max_cycle;Signal;HPM_P1;HPM_P2
2023/12/07 00:00:36;;;;;;;18.50;12.20;;;2.90;96.70;;;;;;5103773;28;20452;-72
2023/12/07 00:03:02;;;;;;;18.85;13.00;;;2.90;97.00;;;;;;5106721;28;20507;-73
2023/12/07 00:05:28;;;;;;;17.57;12.53;;;2.90;96.70;;;;;;5104536;28;20778;-72
2023/12/07 00:07:53;;;;;;;17.93;12.30;;;2.90;96.60;;;;;;5106882;28;20420;-72
2023/12/07 00:10:19;;;;;;;17.63;12.52;;;2.90;96.60;;;;;;5086925;28;20413;-72
2023/12/07 00:12:44;;;;;;;17.33;12.53;;;2.90;96.60;;;;;;5106908;28;20405;-73
2023/12/07 00:15:10;;;;;;;17.27;12.23;;;2.90;96.60;;;;;;5103894;28;20418;-72
2023/12/07 00:17:36;;;;;;;15.88;11.35;;;2.90;96.60;;;;;;5106077;28;20417;-72
2023/12/07 00:20:04;;;;;;;15.60;11.90;;;2.90;96.90;;;;;;5104260;28;20495;-72
2023/12/07 00:22:29;;;;;;;15.63;11.40;;;2.90;96.70;;;;;;5078485;28;20420;-73
2023/12/07 00:24:55;;;;;;;16.70;11.40;;;2.90;96.70;;;;;;5102171;28;20408;-73
2023/12/07 00:27:21;;;;;;;16.23;11.73;;;2.90;96.70;;;;;;5085159;28;20412;-72
2023/12/07 00:29:46;;;;;;;14.70;11.25;;;2.90;96.70;;;;;;5093416;27;20424;-72
2023/12/07 00:32:12;;;;;;;15.63;11.10;;;2.90;96.60;;;;;;5106143;28;20401;-72
2023/12/07 00:34:38;;;;;;;15.73;11.70;;;2.90;96.60;;;;;;5104608;28;20408;-73
2023/12/07 00:37:03;;;;;;;16.42;11.90;;;2.90;96.50;;;;;;5106404;28;20397;-73
2023/12/07 00:39:29;;;;;;;16.42;11.43;;;2.90;96.50;;;;;;5101604;28;20400;-72
2023/12/07 00:41:54;;;;;;;14.97;11.43;;;2.90;96.40;;;;;;5104964;28;20793;-72
2023/12/07 00:44:20;;;;;;;16.10;10.95;;;2.90;96.40;;;;;;5103242;28;20393;-73
2023/12/07 00:46:45;;;;;;;17.63;11.47;;;2.90;96.40;;;;;;5103025;28;20413;-73
2023/12/07 00:49:12;;;;;;;16.03;11.40;;;2.90;96.30;;;;;;5103507;28;20408;-72
2023/12/07 00:51:37;;;;;;;15.23;10.80;;;2.90;96.30;;;;;;5105300;28;20389;-72
2023/12/07 00:54:03;;;;;;;14.83;10.70;;;2.90;96.20;;;;;;5103183;28;20947;-73
2023/12/07 00:56:29;;;;;;;14.80;10.80;;;2.90;96.20;;;;;;5102259;28;20404;-73
2023/12/07 00:58:54;;;;;;;15.40;11.20;;;2.90;96.20;;;;;;5101501;28;20457;-73
2023/12/07 01:01:20;;;;;;;15.23;10.33;;;2.90;96.20;;;;;;5103141;28;20435;-72
2023/12/07 01:03:46;;;;;;;15.80;10.75;;;2.90;96.10;;;;;;5102363;28;20472;-73
2023/12/07 01:06:11;;;;;;;14.15;10.40;;;2.90;96.10;;;;;;5103530;28;20754;-73
2023/12/07 01:08:37;;;;;;;16.97;11.70;;;2.90;96.00;;;;;;5102411;28;20537;-73
2023/12/07 01:11:04;;;;;;;15.57;10.97;;;2.90;96.00;;;;;;5103110;28;20488;-72
2023/12/07 01:13:30;;;;;;;17.15;11.90;;;2.90;95.90;;;;;;5102731;28;20400;-73
2023/12/07 01:15:56;;;;;;;15.10;10.95;;;2.90;95.90;;;;;;5102123;28;20392;-73
2023/12/07 01:18:22;;;;;;;16.73;11.20;;;2.80;95.90;;;;;;5102091;28;20404;-73
2023/12/07 01:20:48;;;;;;;15.07;11.02;;;2.80;95.90;;;;;;5100803;28;21117;-72
2023/12/07 01:23:14;;;;;;;16.30;11.82;;;2.80;96.00;;;;;;5101244;28;20412;-73
2023/12/07 01:25:40;;;;;;;15.17;11.10;;;2.90;96.10;;;;;;5096481;28;20500;-73
2023/12/07 01:28:05;;;;;;;15.20;10.47;;;2.80;96.10;;;;;;5098035;28;20929;-72
2023/12/07 01:30:31;;;;;;;16.65;11.38;;;2.80;96.10;;;;;;5103130;28;20406;-72
2023/12/07 01:32:57;;;;;;;15.33;11.37;;;2.80;96.10;;;;;;5098288;28;20411;-72
2023/12/07 01:35:22;;;;;;;16.23;11.13;;;2.90;96.10;;;;;;5097756;28;20402;-73
2023/12/07 01:37:48;;;;;;;14.77;11.07;;;2.90;96.00;;;;;;5096082;28;20407;-73
2023/12/07 01:40:14;;;;;;;15.65;11.18;;;2.80;96.10;;;;;;5103832;28;20922;-73
2023/12/07 01:42:48;;;;;;;14.15;10.85;;;2.90;96.10;;;;;;5096895;28;20469;-72
2023/12/07 01:45:14;;;;;;;15.25;11.23;;;2.80;96.10;;;;;;5102771;28;20667;-72
2023/12/07 01:47:40;;;;;;;15.88;10.95;;;2.80;96.00;;;;;;5099821;28;20456;-73
2023/12/07 01:50:07;;;;;;;14.57;10.95;;;2.90;96.10;;;;;;5084736;28;20415;-72
2023/12/07 01:52:34;;;;;;;14.93;10.93;;;2.80;96.00;;;;;;5082018;28;20416;-73
2023/12/07 01:55:00;;;;;;;15.98;11.30;;;2.80;96.00;;;;;;5101498;28;20471;-72
2023/12/07 01:57:25;;;;;;;14.70;11.18;;;2.90;96.20;;;;;;5098812;28;20501;-73
2023/12/07 01:59:51;;;;;;;14.55;11.25;;;2.80;96.20;;;;;;5103341;28;20433;-72
2023/12/07 02:02:17;;;;;;;14.80;11.02;;;2.80;96.10;;;;;;5095140;28;20495;-73
2023/12/07 02:04:42;;;;;;;15.17;10.60;;;2.80;96.20;;;;;;5101271;28;20457;-73
2023/12/07 02:07:08;;;;;;;18.80;11.40;;;2.90;96.20;;;;;;5098559;28;20919;-73
2023/12/07 02:09:34;;;;;;;15.85;10.82;;;2.90;96.10;;;;;;5101493;28;20451;-73
2023/12/07 02:12:00;;;;;;;15.48;11.02;;;2.80;96.10;;;;;;5099449;28;20433;-73
2023/12/07 02:14:26;;;;;;;16.30;11.10;;;2.80;96.00;;;;;;5101195;28;20774;-73
2023/12/07 02:17:00;;;;;;;14.45;10.77;;;2.90;96.00;;;;;;5099022;28;20414;-72
2023/12/07 02:19:50;;;;;;;15.98;10.88;;;2.90;96.10;;;;;;5101748;28;20408;-73
2023/12/07 02:22:31;;;;;;;14.25;10.57;;;2.80;96.10;;;;;;5094569;28;20439;-73
2023/12/07 02:25:12;;;;;;;14.63;11.10;;;2.90;96.10;;;;;;5096718;28;20769;-72
2023/12/07 02:27:48;;;;;;;14.90;10.10;;;2.90;96.10;;;;;;5095714;28;20420;-73
2023/12/07 02:30:14;;;;;;;16.48;11.05;;;2.90;96.10;;;;;;5102374;28;20471;-73
2023/12/07 02:32:43;;;;;;;15.23;10.55;;;2.90;96.10;;;;;;5093558;28;20398;-73
2023/12/07 02:35:12;;;;;;;14.90;9.85;;;2.90;96.10;;;;;;5099913;28;20475;-73
2023/12/07 02:37:41;;;;;;;15.65;10.40;;;2.90;96.00;;;;;;5103930;28;20396;-72
2023/12/07 02:40:11;;;;;;;13.18;10.20;;;2.90;96.00;;;;;;5086474;28;20411;-73
2023/12/07 02:42:42;;;;;;;15.95;10.52;;;2.90;95.90;;;;;;5086205;28;20439;-72
2023/12/07 02:45:09;;;;;;;15.13;10.93;;;2.80;95.80;;;;;;5098097;28;20975;-72
2023/12/07 02:47:35;;;;;;;14.77;10.40;;;2.80;95.80;;;;;;5084853;28;20422;-73
2023/12/07 02:50:05;;;;;;;16.08;10.93;;;2.90;95.80;;;;;;5079286;28;20411;-73
2023/12/07 02:52:31;;;;;;;14.70;10.40;;;2.80;95.80;;;;;;5080278;28;20416;-73
2023/12/07 02:54:57;;;;;;;17.08;10.32;;;2.90;95.80;;;;;;5093810;28;20398;-73
2023/12/07 02:57:22;;;;;;;14.73;10.77;;;2.80;95.80;;;;;;5095668;28;21888;-73
2023/12/07 02:59:48;;;;;;;16.27;10.50;;;2.80;95.90;;;;;;5089862;28;20414;-73
2023/12/07 03:02:14;;;;;;;17.43;10.63;;;2.80;95.90;;;;;;5093010;28;20508;-73
2023/12/07 03:04:39;;;;;;;15.98;10.80;;;2.80;95.90;;;;;;5087640;28;20468;-72
2023/12/07 03:07:05;;;;;;;15.00;10.87;;;2.80;95.90;;;;;;5088340;28;20394;-73
2023/12/07 03:09:31;;;;;;;16.63;11.03;;;2.90;95.90;;;;;;5092069;28;20398;-73
2023/12/07 03:11:56;;;;;;;18.00;10.68;;;2.90;95.90;;;;;;5091175;28;20412;-73
2023/12/07 03:14:22;;;;;;;13.83;9.60;;;2.80;95.80;;;;;;5075794;28;20402;-72
2023/12/07 03:16:47;;;;;;;16.63;10.67;;;2.80;95.70;;;;;;5091151;28;20402;-72
2023/12/07 03:19:13;;;;;;;15.68;10.65;;;2.80;95.70;;;;;;5089244;28;20397;-73
2023/12/07 03:21:40;;;;;;;15.87;10.20;;;2.90;95.70;;;;;;5091107;28;20434;-73
2023/12/07 03:24:08;;;;;;;15.23;10.25;;;2.80;95.70;;;;;;5097180;28;20390;-72
2023/12/07 03:26:33;;;;;;;14.32;10.48;;;2.80;95.70;;;;;;5091807;28;20418;-73
2023/12/07 03:28:59;;;;;;;18.02;11.07;;;2.80;95.70;;;;;;5102169;28;20400;-73
2023/12/07 03:31:25;;;;;;;16.05;10.23;;;2.80;95.60;;;;;;5091547;28;20406;-72
2023/12/07 03:33:50;;;;;;;16.37;10.63;;;2.80;95.70;;;;;;5090746;28;20402;-73
2023/12/07 03:36:16;;;;;;;14.25;10.27;;;2.80;95.70;;;;;;5073561;28;20441;-73
2023/12/07 03:38:42;;;;;;;15.77;10.20;;;2.80;95.70;;;;;;5089218;28;20504;-73
2023/12/07 03:41:08;;;;;;;13.43;10.10;;;2.80;95.70;;;;;;5091749;28;20999;-72
2023/12/07 03:43:34;;;;;;;14.65;9.57;;;2.80;95.80;;;;;;5090829;28;20802;-72
2023/12/07 03:45:59;;;;;;;14.95;10.30;;;2.80;95.80;;;;;;5090671;28;20745;-73
2023/12/07 03:48:25;;;;;;;14.47;10.43;;;2.80;95.90;;;;;;5090188;28;20467;-73
2023/12/07 03:50:50;;;;;;;14.57;9.97;;;2.90;95.80;;;;;;5090213;28;20927;-73
2023/12/07 03:53:16;;;;;;;15.07;10.68;;;2.80;95.70;;;;;;5090721;28;20401;-73
2023/12/07 03:55:42;;;;;;;13.57;9.77;;;2.80;95.70;;;;;;5088491;28;20450;-73
2023/12/07 03:58:07;;;;;;;13.10;10.00;;;2.80;95.70;;;;;;5082556;28;20493;-73
2023/12/07 04:00:33;;;;;;;12.75;9.98;;;2.80;95.70;;;;;;5089487;28;20410;-72
2023/12/07 04:02:58;;;;;;;15.03;10.67;;;2.80;95.70;;;;;;5090886;28;20406;-73
2023/12/07 04:05:24;;;;;;;14.83;10.40;;;2.80;95.80;;;;;;5089947;28;20828;-73
2023/12/07 04:07:50;;;;;;;15.02;10.25;;;2.80;95.80;;;;;;5090156;28;20417;-73
2023/12/07 04:10:15;;;;;;;17.80;10.13;;;2.80;95.80;;;;;;5088612;28;20451;-73
2023/12/07 04:12:41;;;;;;;16.20;10.93;;;2.80;95.80;;;;;;5088518;28;20412;-73
2023/12/07 04:15:07;;;;;;;16.43;10.90;;;2.80;95.80;;;;;;5088874;28;20438;-73
2023/12/07 04:17:33;;;;;;;14.82;10.05;;;2.70;95.80;;;;;;5089183;28;20417;-73
2023/12/07 04:19:59;;;;;;;15.03;10.93;;;2.70;95.70;;;;;;5088548;28;20421;-73
2023/12/07 04:22:24;;;;;;;16.27;10.85;;;2.70;95.70;;;;;;5071793;28;20430;-73
2023/12/07 04:24:50;;;;;;;18.97;11.27;;;2.70;95.80;;;;;;5089040;28;20417;-73
2023/12/07 04:27:15;;;;;;;15.20;10.30;;;2.70;95.80;;;;;;5071937;28;20406;-73
2023/12/07 04:29:41;;;;;;;16.90;11.30;;;2.70;95.80;;;;;;5087305;28;20406;-73
2023/12/07 04:32:07;;;;;;;16.95;10.88;;;2.70;95.90;;;;;;5089877;28;20455;-73
2023/12/07 04:34:34;;;;;;;15.55;10.63;;;2.70;96.00;;;;;;5102818;28;20479;-73
2023/12/07 04:36:59;;;;;;;14.23;10.52;;;2.70;96.00;;;;;;5108809;28;20400;-73
2023/12/07 04:39:25;;;;;;;14.15;10.30;;;2.70;96.00;;;;;;5093065;28;20414;-73
2023/12/07 04:41:51;;;;;;;15.80;10.32;;;2.70;96.00;;;;;;5107779;28;20492;-73
2023/12/07 04:44:16;;;;;;;13.77;10.07;;;2.70;96.10;;;;;;5106280;28;20456;-73
2023/12/07 04:46:42;;;;;;;14.40;10.17;;;2.70;96.20;;;;;;5090562;28;20417;-73
2023/12/07 04:49:08;;;;;;;15.53;10.60;;;2.70;96.20;;;;;;5093820;28;20881;-73
2023/12/07 04:51:34;;;;;;;17.07;11.07;;;2.70;96.20;;;;;;5107004;28;20408;-73
2023/12/07 04:54:00;;;;;;;14.65;10.55;;;2.70;96.20;;;;;;5105764;28;20428;-73
2023/12/07 04:56:25;;;;;;;15.57;10.48;;;2.70;96.30;;;;;;5081019;28;20413;-72
2023/12/07 04:58:51;;;;;;;14.70;10.40;;;2.70;96.20;;;;;;5103254;28;20410;-73
2023/12/07 05:01:18;;;;;;;15.73;10.77;;;2.70;96.20;;;;;;5090276;28;20433;-73
2023/12/07 05:03:45;;;;;;;15.55;10.77;;;2.70;96.20;;;;;;5089937;28;20497;-73
2023/12/07 05:06:10;;;;;;;15.25;10.57;;;2.70;96.30;;;;;;5088624;28;20471;-72
2023/12/07 05:08:36;;;;;;;18.08;11.13;;;2.70;96.30;;;;;;5089329;28;20892;-73
2023/12/07 05:11:02;;;;;;;14.87;10.90;;;2.70;96.30;;;;;;5088089;28;20413;-73
2023/12/07 05:13:27;;;;;;;16.30;11.00;;;2.70;96.30;;;;;;5101494;28;20412;-73
2023/12/07 05:15:53;;;;;;;16.02;11.20;;;2.60;96.20;;;;;;5087479;28;20456;-73
2023/12/07 05:18:19;;;;;;;15.80;10.98;;;2.60;96.20;;;;;;5087661;28;20474;-73
2023/12/07 05:20:44;;;;;;;14.30;11.00;;;2.60;96.30;;;;;;5089848;28;20467;-73
2023/12/07 05:23:10;;;;;;;15.10;10.73;;;2.60;96.40;;;;;;5089033;28;20408;-73
2023/12/07 05:25:35;;;;;;;15.38;10.45;;;2.60;96.40;;;;;;5089881;28;20501;-73
2023/12/07 05:28:01;;;;;;;15.87;10.73;;;2.60;96.40;;;;;;5088891;28;20404;-73
2023/12/07 05:30:27;;;;;;;16.23;10.90;;;2.60;96.50;;;;;;5088234;28;20750;-73
2023/12/07 05:32:53;;;;;;;14.50;10.10;;;2.60;96.50;;;;;;5089939;28;20835;-73
2023/12/07 05:35:20;;;;;;;14.50;10.23;;;2.60;96.50;;;;;;5090880;28;20489;-73
2023/12/07 05:37:45;;;;;;;13.57;9.98;;;2.60;96.50;;;;;;5088255;28;20405;-73
2023/12/07 05:40:14;;;;;;;13.43;9.48;;;2.50;96.50;;;;;;5088698;28;20405;-73
2023/12/07 05:42:39;;;;;;;14.00;10.38;;;2.60;96.60;;;;;;5088191;28;20634;-73
2023/12/07 05:45:06;;;;;;;14.55;9.82;;;2.60;96.60;;;;;;5087222;28;20403;-73
2023/12/07 05:47:32;;;;;;;15.45;10.05;;;2.60;96.60;;;;;;5090413;28;20411;-73
2023/12/07 05:49:59;;;;;;;14.47;9.50;;;2.50;96.60;;;;;;5089764;28;20481;-73
2023/12/07 05:52:25;;;;;;;14.77;10.07;;;2.50;96.70;;;;;;5089956;28;20492;-73
2023/12/07 05:54:51;;;;;;;12.93;9.25;;;2.50;96.70;;;;;;5088828;28;20405;-73
2023/12/07 05:57:16;;;;;;;13.50;9.85;;;2.60;96.70;;;;;;5078504;28;20410;-73
2023/12/07 05:59:43;;;;;;;14.30;9.50;;;2.50;96.70;;;;;;5086372;28;20417;-73
2023/12/07 06:02:09;;;;;;;14.00;9.40;;;2.50;96.80;;;;;;5098448;28;20484;-73
2023/12/07 06:04:34;;;;;;;13.80;9.82;;;2.60;96.90;;;;;;5104855;28;20428;-73
2023/12/07 06:07:00;;;;;;;14.45;9.18;;;2.60;96.90;;;;;;5102349;28;20446;-73
2023/12/07 06:09:26;;;;;;;13.30;8.73;;;2.50;96.90;;;;;;5087974;28;20403;-73
2023/12/07 06:11:51;;;;;;;13.80;9.23;;;2.60;96.90;;;;;;5102148;28;20916;-73
2023/12/07 06:14:17;;;;;;;14.25;9.32;;;2.60;97.00;;;;;;5082328;28;20404;-73
2023/12/07 06:16:42;;;;;;;15.00;9.40;;;2.60;97.00;;;;;;5101830;28;20392;-73
2023/12/07 06:19:08;;;;;;;14.17;8.93;;;2.60;97.00;;;;;;5102997;28;20404;-70
2023/12/07 06:21:34;;;;;;;13.15;9.15;;;2.60;96.90;;;;;;5101847;28;20775;-69
2023/12/07 06:23:59;;;;;;;11.73;8.80;;;2.60;96.90;;;;;;5101840;28;20411;-71
2023/12/07 06:26:26;;;;;;;12.07;8.80;;;2.60;96.90;;;;;;5090440;28;20429;-71
2023/12/07 06:28:51;;;;;;;14.00;9.40;;;2.50;96.80;;;;;;5093763;28;20936;-73
2023/12/07 06:31:21;;;;;;;13.33;9.20;;;2.60;96.90;;;;;;5090575;28;20402;-73
2023/12/07 06:33:47;;;;;;;13.68;9.45;;;2.50;96.90;;;;;;5093205;28;20460;-73
2023/12/07 06:36:19;;;;;;;12.52;9.48;;;2.50;96.90;;;;;;5100650;28;20400;-73
2023/12/07 06:38:45;;;;;;;13.50;9.23;;;2.50;96.90;;;;;;5092955;28;20434;-73
2023/12/07 06:41:10;;;;;;;14.33;9.20;;;2.50;96.90;;;;;;5097676;28;20541;-73
2023/12/07 06:43:36;;;;;;;13.13;8.60;;;2.50;96.90;;;;;;5095834;28;20417;-73
2023/12/07 06:46:01;;;;;;;12.40;8.77;;;2.50;96.90;;;;;;5097216;28;20410;-73
2023/12/07 06:48:27;;;;;;;14.17;9.03;;;2.50;97.00;;;;;;5102150;28;20487;-73
2023/12/07 06:50:53;;;;;;;12.55;8.98;;;2.50;97.10;;;;;;5099998;28;20409;-73
2023/12/07 06:53:18;;;;;;;13.47;9.43;;;2.50;97.10;;;;;;5102743;28;20488;-73
2023/12/07 06:55:44;;;;;;;13.27;9.20;;;2.50;97.10;;;;;;5098366;28;20844;-73
2023/12/07 06:58:10;;;;;;;14.35;8.75;;;2.50;97.40;;;;;;5093479;28;20403;-73
2023/12/07 07:00:36;;;;;;;14.07;8.87;;;2.50;97.10;;;;;;5095398;28;20410;-74
2023/12/07 07:03:02;;;;;;;12.98;9.30;;;2.50;97.10;;;;;;5102475;28;20454;-73
2023/12/07 07:05:28;;;;;;;13.73;9.32;;;2.50;97.10;;;;;;5098751;28;20406;-73
2023/12/07 07:07:55;;;;;;;14.55;8.70;;;2.50;97.10;;;;;;5097090;28;20397;-73
2023/12/07 07:10:21;;;;;;;13.85;9.30;;;2.50;97.10;;;;;;5087348;28;20521;-73
2023/12/07 07:12:46;;;;;;;15.32;9.52;;;2.50;97.10;;;;;;5101997;28;20494;-73
2023/12/07 07:15:12;;;;;;;14.40;8.93;;;2.50;97.10;;;;;;5097792;28;20402;-73
2023/12/07 07:17:38;;;;;;;13.10;9.30;;;2.50;97.10;;;;;;5103281;28;20400;-73
2023/12/07 07:20:04;;;;;;;15.80;9.70;;;2.50;97.10;;;;;;5099233;28;20396;-73
2023/12/07 07:22:30;;;;;;;13.93;9.53;;;2.50;97.10;;;;;;5101430;28;20473;-74
2023/12/07 07:24:55;;;;;;;14.07;9.70;;;2.50;97.10;;;;;;5080838;28;20410;-73
2023/12/07 07:27:21;;;;;;;15.43;10.15;;;2.50;97.10;;;;;;5101965;28;20960;-74
2023/12/07 07:29:47;;;;;;;14.38;9.90;;;2.40;97.20;;;;;;5099398;28;20445;-74
2023/12/07 07:32:12;;;;;;;14.85;9.90;;;2.40;97.20;;;;;;5095975;28;20475;-74
2023/12/07 07:34:39;;;;;;;18.53;10.57;;;2.50;97.30;;;;;;5095115;28;20763;-73
2023/12/07 07:37:06;;;;;;;14.75;10.15;;;2.50;97.30;;;;;;5092993;28;20404;-73
2023/12/07 07:39:32;;;;;;;15.55;10.02;;;2.50;97.30;;;;;;5101780;28;20394;-74
2023/12/07 07:41:58;;;;;;;17.30;10.87;;;2.40;97.30;;;;;;5103910;28;20933;-73
2023/12/07 07:44:23;;;;;;;18.23;11.40;;;2.50;97.30;;;;;;5100250;28;20767;-73
2023/12/07 07:46:49;;;;;;;15.90;10.48;;;2.50;97.30;;;;;;5086807;28;20406;-74
2023/12/07 07:49:15;;;;;;;15.93;10.77;;;2.50;97.30;;;;;;5102087;28;20967;-74
2023/12/07 07:51:40;;;;;;;16.77;10.70;;;2.50;97.30;;;;;;5098295;28;20408;-73
2023/12/07 07:54:06;;;;;;;17.05;10.90;;;2.50;97.30;;;;;;5095983;28;20412;-74
2023/12/07 07:56:31;;;;;;;15.43;10.73;;;2.50;97.40;;;;;;5100925;28;20987;-73
2023/12/07 07:59:00;;;;;;;16.40;10.77;;;2.50;97.40;;;;;;5091639;28;20621;-74
2023/12/07 08:01:26;;;;;;;17.58;11.02;;;2.50;97.40;;;;;;5090527;28;20455;-74
2023/12/07 08:03:51;;;;;;;15.93;10.82;;;2.50;97.40;;;;;;5092188;28;20421;-74
2023/12/07 08:06:17;;;;;;;19.90;11.30;;;2.50;97.40;;;;;;5090012;28;20971;-74
2023/12/07 08:08:43;;;;;;;17.73;11.55;;;2.50;97.40;;;;;;5091873;28;20459;-74
2023/12/07 08:11:08;;;;;;;15.95;10.65;;;2.50;97.50;;;;;;5089037;28;20916;-74
2023/12/07 08:13:34;;;;;;;16.87;10.80;;;2.50;97.50;;;;;;5073288;28;20406;-74
2023/12/07 08:15:59;;;;;;;16.57;11.17;;;2.60;97.60;;;;;;5089584;28;20789;-74
2023/12/07 08:18:25;;;;;;;17.30;10.93;;;2.50;97.60;;;;;;5071430;28;20487;-73
2023/12/07 08:20:51;;;;;;;16.25;10.52;;;2.60;97.70;;;;;;5088575;28;20466;-74
2023/12/07 08:23:17;;;;;;;19.37;10.77;;;2.50;97.60;;;;;;5089008;28;20861;-74
2023/12/07 08:25:43;;;;;;;15.90;10.33;;;2.60;97.60;;;;;;5090069;28;20830;-74
2023/12/07 08:28:09;;;;;;;18.13;10.73;;;2.60;97.70;;;;;;5089436;28;20769;-74
2023/12/07 08:30:35;;;;;;;16.25;11.23;;;2.60;97.80;;;;;;5088627;28;20896;-74
2023/12/07 08:33:01;;;;;;;18.88;11.48;;;2.70;97.90;;;;;;5088946;28;20406;-74
2023/12/07 08:35:27;;;;;;;16.25;10.95;;;2.70;98.10;;;;;;5089794;28;20417;-74
2023/12/07 08:37:53;;;;;;;17.02;11.15;;;2.70;98.20;;;;;;5089709;28;20497;-74
2023/12/07 08:40:19;;;;;;;17.33;11.60;;;2.80;98.30;;;;;;5089227;28;20938;-74
2023/12/07 08:42:46;;;;;;;16.67;11.35;;;2.80;98.30;;;;;;5087798;28;20426;-74
2023/12/07 08:45:13;;;;;;;17.83;12.02;;;2.80;98.30;;;;;;5088476;28;20410;-74
2023/12/07 08:47:39;;;;;;;18.50;11.38;;;2.90;98.30;;;;;;5088671;28;20760;-74
2023/12/07 08:50:07;;;;;;;16.33;10.87;;;2.90;98.30;;;;;;5088551;28;20401;-73
2023/12/07 08:52:33;;;;;;;17.50;10.88;;;2.90;98.30;;;;;;5087056;28;20898;-74
2023/12/07 08:54:59;;;;;;;17.80;12.23;;;2.90;98.20;;;;;;5088232;28;20410;-73
2023/12/07 08:57:25;;;;;;;17.48;11.45;;;3.00;98.20;;;;;;5087925;28;20519;-74
2023/12/07 08:59:50;;;;;;;18.02;11.95;;;3.00;98.10;;;;;;5093291;28;20404;-74
2023/12/07 09:02:16;;;;;;;18.48;11.85;;;3.00;98.10;;;;;;5099651;28;20520;-74
2023/12/07 09:04:42;;;;;;;17.45;11.63;;;3.00;98.10;;;;;;5100208;28;20411;-74
2023/12/07 09:07:09;;;;;;;18.77;11.97;;;3.00;98.20;;;;;;5099355;28;20410;-74
2023/12/07 09:09:35;;;;;;;17.67;11.40;;;3.10;98.20;;;;;;5095262;28;20943;-74
2023/12/07 09:12:01;;;;;;;17.00;11.00;;;3.10;98.20;;;;;;5094329;28;20409;-74
2023/12/07 09:14:26;;;;;;;15.57;10.83;;;3.10;98.10;;;;;;5099552;28;20392;-74
2023/12/07 09:16:52;;;;;;;14.90;10.87;;;3.10;98.10;;;;;;5098070;28;20402;-74
2023/12/07 09:19:18;;;;;;;15.38;10.55;;;3.10;98.10;;;;;;5092425;28;20458;-74
2023/12/07 09:21:44;;;;;;;17.15;10.82;;;3.20;98.10;;;;;;5097443;28;20421;-73
2023/12/07 09:24:09;;;;;;;16.77;10.73;;;3.10;97.90;;;;;;5094635;28;20479;-74
2023/12/07 09:26:36;;;;;;;15.93;10.73;;;3.20;97.90;;;;;;5094729;28;20406;-74
2023/12/07 09:29:02;;;;;;;15.88;10.93;;;3.20;97.90;;;;;;5099208;28;20504;-74
2023/12/07 09:31:28;;;;;;;16.83;11.02;;;3.20;98.10;;;;;;5096492;28;20410;-74
2023/12/07 09:33:53;;;;;;;16.35;11.00;;;3.30;98.30;;;;;;5099013;28;20400;-74
2023/12/07 09:36:21;;;;;;;16.38;11.15;;;3.30;98.40;;;;;;5097128;28;20823;-74
2023/12/07 09:38:46;;;;;;;16.08;11.25;;;3.40;98.50;;;;;;5099529;28;20454;-74
2023/12/07 09:41:12;;;;;;;16.48;10.95;;;3.50;98.50;;;;;;5097067;28;20975;-74
2023/12/07 09:43:38;;;;;;;16.85;11.27;;;3.50;98.40;;;;;;5099836;28;20921;-74
2023/12/07 09:46:05;;;;;;;17.13;10.85;;;3.60;98.20;;;;;;5097219;28;21136;-74
2023/12/07 09:48:31;;;;;;;15.63;11.30;;;3.60;97.90;;;;;;5098116;28;20408;-74
2023/12/07 09:50:59;;;;;;;15.25;10.40;;;3.60;97.60;;;;;;5094792;28;20778;-74
2023/12/07 09:53:25;;;;;;;17.92;11.45;;;3.60;97.40;;;;;;5097537;28;20397;-74
2023/12/07 09:55:50;;;;;;;15.98;11.55;;;3.60;97.20;;;;;;5093448;28;20406;-74
2023/12/07 09:58:16;;;;;;;17.05;12.20;;;3.70;97.40;;;;;;5088363;28;20460;-74
2023/12/07 10:00:42;;;;;;;18.30;12.10;;;3.70;97.50;;;;;;5092536;28;20410;-74
2023/12/07 10:03:19;;;;;;;17.03;11.60;;;3.80;97.50;;;;;;5088677;28;20404;-74
2023/12/07 10:05:59;;;;;;;16.08;11.10;;;3.90;97.60;;;;;;5099601;28;20438;-74
2023/12/07 10:08:29;;;;;;;17.13;11.93;;;3.90;97.30;;;;;;5098157;28;20408;-74
2023/12/07 10:11:09;;;;;;;16.27;11.27;;;4.00;96.90;;;;;;5106141;28;20404;-74
2023/12/07 10:13:36;;;;;;;17.75;12.30;;;4.00;96.50;;;;;;5104517;28;20402;-74
2023/12/07 10:16:16;;;;;;;18.35;12.10;;;3.90;96.10;;;;;;5097550;28;20436;-74
2023/12/07 10:18:42;;;;;;;18.60;12.55;;;3.90;95.90;;;;;;5097744;28;20394;-74
2023/12/07 10:21:11;;;;;;;20.90;11.88;;;3.90;95.80;;;;;;5079363;28;21132;-74
2023/12/07 10:23:37;;;;;;;17.02;12.55;;;3.90;95.70;;;;;;5102218;28;20400;-74
2023/12/07 10:26:05;;;;;;;19.27;12.63;;;3.80;95.40;;;;;;5087793;28;20405;-74
2023/12/07 10:28:33;;;;;;;18.87;12.87;;;3.80;95.20;;;;;;5100400;28;20404;-74
2023/12/07 10:30:59;;;;;;;18.88;12.82;;;3.70;95.20;;;;;;5105125;28;20404;-74
2023/12/07 10:33:26;;;;;;;19.23;12.73;;;3.70;95.20;;;;;;5089212;28;20430;-74
2023/12/07 10:35:51;;;;;;;22.02;13.75;;;3.60;95.10;;;;;;5103799;28;20481;-74
2023/12/07 10:38:18;;;;;;;19.55;13.20;;;3.60;95.10;;;;;;5083556;28;20630;-74
2023/12/07 10:40:46;;;;;;;18.75;13.50;;;3.60;95.50;;;;;;5103744;28;20828;-74
2023/12/07 10:43:12;;;;;;;20.80;13.52;;;3.80;97.40;;;;;;5098663;28;20405;-74
2023/12/07 10:45:41;;;;;;;19.08;13.52;;;4.00;98.20;;;;;;5101202;28;20973;-74
2023/12/07 10:48:09;;;;;;;21.50;13.95;;;4.20;98.40;;;;;;5081572;28;20412;-74
2023/12/07 10:50:36;;;;;;;20.50;14.80;;;4.40;97.80;;;;;;5100019;28;20403;-74
2023/12/07 10:53:12;;;;;;;21.67;15.57;;;4.60;97.60;;;;;;5080741;28;20397;-74
2023/12/07 10:55:55;;;;;;;22.85;16.02;;;4.80;96.60;;;;;;5078293;28;20425;-74
2023/12/07 10:58:24;;;;;;;24.80;15.93;;;4.80;94.70;;;;;;5078541;28;20460;-74
2023/12/07 11:00:52;;;;;;;22.87;16.10;;;4.90;94.30;;;;;;5088025;28;20413;-74
2023/12/07 11:03:17;;;;;;;23.85;16.67;;;5.10;95.10;;;;;;5087423;28;20413;-74
2023/12/07 11:05:48;;;;;;;22.23;16.30;;;5.50;96.70;;;;;;5088311;28;20402;-74
2023/12/07 11:08:22;;;;;;;20.98;15.63;;;5.70;95.10;;;;;;5087361;28;21007;-74
2023/12/07 11:11:10;;;;;;;19.53;15.03;;;6.10;94.50;;;;;;5077122;28;20446;-74
2023/12/07 11:13:37;;;;;;;20.75;16.02;;;6.50;93.10;;;;;;5089580;28;20414;-74
2023/12/07 11:16:04;;;;;;;20.05;15.15;;;6.80;89.00;;;;;;5090037;28;20937;-74
2023/12/07 11:18:29;;;;;;;19.67;14.90;;;7.00;86.50;;;;;;5089673;28;20463;-74
2023/12/07 11:20:56;;;;;;;18.92;14.52;;;7.30;77.00;;;;;;5090569;28;20430;-74
2023/12/07 11:23:22;;;;;;;19.40;14.68;;;7.30;74.80;;;;;;5089746;28;20764;-74
2023/12/07 11:25:48;;;;;;;18.67;14.07;;;7.30;72.00;;;;;;5072469;28;20406;-74
2023/12/07 11:28:15;;;;;;;17.75;13.55;;;7.10;65.90;;;;;;5094119;28;20734;-75
2023/12/07 11:30:47;;;;;;;18.60;14.55;;;6.80;64.60;;;;;;5109212;28;20400;-74
2023/12/07 11:33:15;;;;;;;18.70;14.70;;;6.50;67.60;;;;;;5107521;28;20432;-74
2023/12/07 11:36:12;;;;;;;18.85;14.90;;;6.30;65.70;;;;;;5096758;28;20402;-74
2023/12/07 11:38:38;;;;;;;20.17;15.52;;;5.90;64.50;;;;;;5076341;28;20961;-74
2023/12/07 11:41:04;;;;;;;20.13;15.50;;;5.60;70.00;;;;;;5095408;28;20865;-74
2023/12/07 11:43:40;;;;;;;22.15;15.80;;;5.40;72.70;;;;;;5107134;28;20396;-74
2023/12/07 11:46:07;;;;;;;21.00;15.90;;;5.30;75.70;;;;;;5103110;28;20539;-74
2023/12/07 11:48:33;;;;;;;19.70;15.40;;;5.10;77.70;;;;;;5109133;28;20401;-74
2023/12/07 11:51:01;;;;;;;20.90;15.43;;;5.00;80.20;;;;;;5104609;28;20478;-74
2023/12/07 11:53:35;;;;;;;20.67;15.40;;;5.00;81.80;;;;;;5090119;28;21313;-74
2023/12/07 11:56:02;;;;;;;26.03;15.50;;;5.10;84.90;;;;;;5101366;28;20461;-74
2023/12/07 11:58:30;;;;;;;20.88;15.35;;;5.20;86.30;;;;;;5094191;28;20410;-74
2023/12/07 12:00:56;;;;;;;21.27;15.75;;;5.20;83.80;;;;;;5089808;28;20429;-74
2023/12/07 12:03:27;;;;;;;26.87;16.10;;;5.30;84.30;;;;;;5092338;28;20402;-74
2023/12/07 12:05:52;;;;;;;22.10;15.95;;;5.50;88.20;;;;;;5089629;28;20402;-74
2023/12/07 12:08:18;;;;;;;21.30;15.43;;;5.70;86.50;;;;;;5090469;28;20408;-74
2023/12/07 12:10:45;;;;;;;21.50;15.98;;;5.80;85.60;;;;;;5089728;28;20432;-74
2023/12/07 12:13:11;;;;;;;21.00;15.93;;;6.10;85.10;;;;;;5073555;28;20394;-74
2023/12/07 12:15:40;;;;;;;19.95;15.00;;;6.10;79.50;;;;;;5088971;28;20417;-74
2023/12/07 12:18:07;;;;;;;21.42;16.48;;;6.20;77.50;;;;;;5090792;28;20406;-74
2023/12/07 12:20:33;;;;;;;20.35;15.77;;;6.20;74.80;;;;;;5090249;28;20462;-74
2023/12/07 12:23:00;;;;;;;22.17;16.45;;;6.10;71.00;;;;;;5089620;28;20433;-74
2023/12/07 12:25:30;;;;;;;21.02;15.38;;;6.00;70.90;;;;;;5089503;28;20433;-74
2023/12/07 12:28:02;;;;;;;20.57;15.37;;;6.00;72.90;;;;;;5090331;28;20413;-74
2023/12/07 12:30:29;;;;;;;20.20;15.77;;;6.10;72.50;;;;;;5106241;28;20435;-74
2023/12/07 12:32:55;;;;;;;19.70;15.57;;;6.00;70.80;;;;;;5103646;28;21023;-74
2023/12/07 12:35:22;;;;;;;19.73;15.50;;;5.90;70.50;;;;;;5106372;28;20443;-74